Current Conditions
Rain
Conditions



Pressure
1006.92 (hPa) - 29.73 (inHG)
Visibility

3.0 (km) - 1.9 (miles)
Temperature
13  °C
Temperature
13  °C
Dewpoint
100  %
 Humidity
Wind Speed
4.0  m/s
9  mph
14  km/h
8  kts
Wind Direction
N
45°
E
90°
135°
S
180°
225°
W
270°
315°
 280°

Due West
Airport Data
ENSO
Stord Airport, Sørstokken
Metar :ENSO 061820Z 28008KT 3000 RA FEW004 SCT007 BKN011 13/13 Q1007
Wed 6th July 20:20 pm
Raw Metar Info
Raw METAR is the most common format in the world for the transmission of observational weather data. It is highly standardized through the International Civil Aviation Organization (ICAO), which allows it to be understood throughout most of the world.
API Info
Data Provided by
https://www.checkwx.com/weather/ENSO

Aviation Weather providing METAR, TAF, AIRMET, SIGMET and OUTLOOK Weather Reports
© Info
CSS/SVG/PHP scripts were developed by weather34 for use in the weather34 template © 2015-2022

Guide Info provided by Metar-Wikipedia